createdAt,value
2018-02-19T00:00:11.793Z,79.20
2018-02-19T00:02:39.475Z,79.10
2018-02-19T00:05:06.408Z,79.00
2018-02-19T00:07:33.354Z,79.30
2018-02-19T00:10:00.296Z,79.70
2018-02-19T00:12:27.217Z,79.90
2018-02-19T00:14:54.929Z,80.40
2018-02-19T00:17:21.838Z,80.10
2018-02-19T00:19:49.552Z,80.80
2018-02-19T00:22:16.476Z,80.70
2018-02-19T00:24:43.388Z,81.20
2018-02-19T00:27:10.308Z,81.40
2018-02-19T00:29:37.241Z,81.50
2018-02-19T00:32:05.134Z,81.70
2018-02-19T00:34:32.828Z,82.10
2018-02-19T00:36:59.750Z,82.00
2018-02-19T00:39:27.452Z,82.00
2018-02-19T00:41:55.373Z,82.00
2018-02-19T00:44:24.097Z,82.10
2018-02-19T00:46:51.041Z,82.10
2018-02-19T00:49:17.997Z,81.90
2018-02-19T00:51:44.930Z,82.00
2018-02-19T00:54:11.857Z,82.00
2018-02-19T00:56:38.768Z,82.00
2018-02-19T00:59:05.705Z,82.20
2018-02-19T01:01:32.678Z,82.50
2018-02-19T01:04:00.368Z,82.80
2018-02-19T01:06:29.217Z,82.80
2018-02-19T01:08:57.924Z,82.90
2018-02-19T01:11:24.833Z,82.90
2018-02-19T01:13:51.764Z,82.90
2018-02-19T01:16:18.674Z,83.10
2018-02-19T01:18:46.520Z,83.00
2018-02-19T01:21:14.199Z,83.40
2018-02-19T01:23:41.128Z,83.30
2018-02-19T01:26:08.037Z,83.70
2018-02-19T01:28:34.968Z,83.90
2018-02-19T01:31:01.878Z,83.80
2018-02-19T01:33:28.804Z,84.20
2018-02-19T01:35:55.714Z,84.80
2018-02-19T01:38:22.644Z,84.90
2018-02-19T01:40:49.553Z,85.30
2018-02-19T01:43:16.466Z,85.20
2018-02-19T01:45:45.164Z,86.30
2018-02-19T01:48:13.848Z,86.70
2018-02-19T01:50:41.532Z,87.40
2018-02-19T01:53:08.462Z,87.40
2018-02-19T01:55:35.493Z,88.00
2018-02-19T01:58:03.184Z,88.30
2018-02-19T02:00:30.097Z,88.20
2018-02-19T02:02:57.801Z,88.50
2018-02-19T02:05:24.716Z,88.50
2018-02-19T02:07:51.628Z,88.50
2018-02-19T02:10:18.556Z,88.60
2018-02-19T02:12:45.470Z,88.90
2018-02-19T02:15:12.393Z,88.90
2018-02-19T02:17:40.244Z,89.00
2018-02-19T02:20:07.201Z,88.50
2018-02-19T02:22:34.117Z,88.70
2018-02-19T02:25:01.044Z,89.10
2018-02-19T02:27:27.952Z,88.80
2018-02-19T02:29:54.871Z,88.50
2018-02-19T02:32:22.536Z,89.40
2018-02-19T02:34:50.234Z,89.60
2018-02-19T02:37:17.165Z,89.50
2018-02-19T02:39:44.093Z,89.70
2018-02-19T02:42:11.004Z,89.80
2018-02-19T02:44:37.927Z,89.90
2018-02-19T02:47:04.848Z,90.10
2018-02-19T02:49:31.770Z,90.10
2018-02-19T02:51:58.695Z,90.20
2018-02-19T02:54:27.396Z,90.30
2018-02-19T02:56:54.313Z,90.30
2018-02-19T02:59:21.259Z,90.30
2018-02-19T03:01:48.174Z,90.50
2018-02-19T03:04:15.106Z,90.70
2018-02-19T03:06:42.019Z,90.80
2018-02-19T03:09:09.713Z,90.80
2018-02-19T03:11:36.620Z,90.80
2018-02-19T03:14:04.309Z,90.70
2018-02-19T03:16:31.224Z,90.70
2018-02-19T03:18:58.925Z,91.20
2018-02-19T03:21:25.826Z,91.20
2018-02-19T03:23:53.524Z,91.30
2018-02-19T03:26:20.433Z,91.30
2018-02-19T03:28:48.122Z,91.40
2018-02-19T03:31:15.038Z,91.40
2018-02-19T03:33:42.745Z,91.60
2018-02-19T03:36:09.652Z,91.60
2018-02-19T03:41:22.987Z,92.10
2018-02-19T03:43:50.643Z,92.30
2018-02-19T03:46:17.546Z,92.30
2018-02-19T03:48:44.434Z,92.60
2018-02-19T03:51:12.160Z,92.80
2018-02-19T03:53:39.010Z,92.80
2018-02-19T03:56:05.918Z,93.00
2018-02-19T03:58:32.801Z,93.10
2018-02-19T04:01:00.712Z,93.10
2018-02-19T04:03:27.623Z,92.90
2018-02-19T04:05:54.592Z,92.90
2018-02-19T04:08:22.269Z,93.00
2018-02-19T04:10:49.186Z,93.00
2018-02-19T04:13:16.114Z,93.10
2018-02-19T04:15:44.016Z,93.20
2018-02-19T04:18:11.699Z,93.30
2018-02-19T04:20:39.668Z,93.30
2018-02-19T04:23:06.579Z,93.40
2018-02-19T04:25:34.282Z,93.50
2018-02-19T04:28:01.202Z,93.50
2018-02-19T04:30:28.132Z,93.60
2018-02-19T04:32:55.809Z,93.70
2018-02-19T04:35:22.736Z,93.70
2018-02-19T04:37:50.416Z,93.60
2018-02-19T04:40:17.345Z,93.80
2018-02-19T04:42:45.012Z,93.60
2018-02-19T04:45:12.699Z,93.60
2018-02-19T04:47:40.524Z,93.60
2018-02-19T04:50:07.440Z,93.80
2018-02-19T04:52:34.344Z,93.80
2018-02-19T04:55:01.271Z,94.00
2018-02-19T04:57:28.943Z,94.40
2018-02-19T04:59:55.858Z,94.30
2018-02-19T05:02:22.775Z,94.40
2018-02-19T05:04:49.700Z,94.50
2018-02-19T05:07:16.611Z,94.50
2018-02-19T05:09:44.301Z,94.80
2018-02-19T05:12:11.218Z,94.80
2018-02-19T05:14:38.913Z,95.20
2018-02-19T05:17:05.816Z,95.20
2018-02-19T05:19:32.737Z,95.10
2018-02-19T05:21:59.648Z,95.00
2018-02-19T05:24:26.580Z,95.00
2018-02-19T05:26:54.402Z,95.10
2018-02-19T05:29:21.329Z,95.30
2018-02-19T05:31:48.233Z,95.20
2018-02-19T05:34:16.071Z,95.50
2018-02-19T05:36:43.753Z,96.50
2018-02-19T05:39:11.613Z,96.50
2018-02-19T05:41:38.527Z,96.70
2018-02-19T05:44:05.460Z,96.30
2018-02-19T05:46:32.368Z,96.60
2018-02-19T05:48:59.305Z,96.40
2018-02-19T05:51:26.217Z,96.40
2018-02-19T05:53:53.912Z,96.30
2018-02-19T05:56:20.822Z,96.30
2018-02-19T05:58:50.443Z,96.20
2018-02-19T06:01:19.338Z,96.20
2018-02-19T06:03:46.266Z,96.30
2018-02-19T06:06:13.932Z,96.20
2018-02-19T06:08:41.618Z,96.30
2018-02-19T06:11:08.532Z,96.30
2018-02-19T06:13:36.222Z,96.80
2018-02-19T06:16:03.136Z,96.80
2018-02-19T06:18:30.832Z,96.90
2018-02-19T06:20:57.740Z,96.90
2018-02-19T06:23:25.438Z,97.10
2018-02-19T06:25:52.351Z,97.10
2018-02-19T06:28:19.282Z,97.20
2018-02-19T06:30:47.112Z,97.30
2018-02-19T06:33:14.038Z,97.40
2018-02-19T06:35:40.953Z,97.70
2018-02-19T06:38:08.652Z,98.10
2018-02-19T06:40:37.490Z,98.10
2018-02-19T06:43:04.416Z,98.30
2018-02-19T06:45:31.347Z,98.40
2018-02-19T06:50:54.641Z,98.50
2018-02-19T06:53:21.544Z,99.00
2018-02-19T06:55:48.477Z,99.40
2018-02-19T06:58:16.185Z,99.90
2018-02-19T07:00:43.092Z,99.90
2018-02-19T07:03:10.033Z,99.90
2018-02-19T07:05:37.725Z,99.90
2018-02-19T07:08:05.564Z,99.90
2018-02-19T07:10:32.477Z,99.90
2018-02-19T07:12:59.407Z,99.90
2018-02-19T07:15:26.325Z,99.90
2018-02-19T07:17:53.253Z,99.90
2018-02-19T07:20:20.169Z,99.90
2018-02-19T07:22:47.872Z,99.90
2018-02-19T07:25:15.699Z,99.90
2018-02-19T07:27:43.565Z,99.90
2018-02-19T07:30:11.257Z,99.90
2018-02-19T07:32:38.156Z,99.90
2018-02-19T07:35:05.102Z,99.90
2018-02-19T07:37:32.028Z,99.90
2018-02-19T07:39:58.940Z,99.90
2018-02-19T07:42:25.880Z,99.90
2018-02-19T07:44:52.788Z,99.90
2018-02-19T07:47:20.487Z,99.90
2018-02-19T07:49:47.419Z,99.90
2018-02-19T07:52:14.326Z,99.90
2018-02-19T07:54:41.277Z,99.90
2018-02-19T07:57:08.944Z,99.90
2018-02-19T07:59:36.750Z,99.90
2018-02-19T08:02:03.659Z,99.90
2018-02-19T08:04:31.348Z,99.90
2018-02-19T08:06:58.269Z,99.90
2018-02-19T08:09:26.965Z,99.90
2018-02-19T08:11:53.868Z,99.90
2018-02-19T08:14:20.831Z,99.90
2018-02-19T08:16:47.762Z,99.90
2018-02-19T08:19:14.680Z,99.90
2018-02-19T08:21:41.624Z,99.90
2018-02-19T08:24:08.537Z,99.90
2018-02-19T08:26:35.474Z,99.90
2018-02-19T08:29:03.172Z,99.90
2018-02-19T08:31:30.072Z,99.90
2018-02-19T08:33:57.813Z,99.90
2018-02-19T08:36:24.682Z,99.90
2018-02-19T08:38:53.377Z,99.90
2018-02-19T08:41:20.297Z,99.90
2018-02-19T08:43:47.997Z,99.90
2018-02-19T08:46:14.909Z,99.90
2018-02-19T08:48:41.839Z,99.90
2018-02-19T08:51:09.510Z,99.90
2018-02-19T08:53:37.200Z,99.90
2018-02-19T08:56:04.108Z,99.90
2018-02-19T08:58:31.032Z,99.90
2018-02-19T09:00:57.930Z,99.50
2018-02-19T09:03:24.870Z,99.50
2018-02-19T09:05:51.781Z,98.50
2018-02-19T09:08:20.217Z,96.90
2018-02-19T09:10:47.124Z,96.90
2018-02-19T09:13:16.729Z,95.10
2018-02-19T09:15:45.420Z,94.50
2018-02-19T09:18:12.330Z,94.40
2018-02-19T09:20:39.260Z,94.20
2018-02-19T09:23:06.177Z,94.00
2018-02-19T09:25:33.104Z,94.20
2018-02-19T09:28:00.009Z,94.20
2018-02-19T09:30:27.907Z,94.20
2018-02-19T09:32:55.579Z,94.10
2018-02-19T09:35:22.510Z,94.10
2018-02-19T09:37:50.190Z,94.00
2018-02-19T09:40:17.142Z,94.00
2018-02-19T09:42:44.082Z,93.70
2018-02-19T09:45:11.764Z,94.00
2018-02-19T09:47:40.599Z,94.00
2018-02-19T09:50:07.525Z,93.60
2018-02-19T09:52:34.440Z,93.50
2018-02-19T09:55:01.361Z,92.70
2018-02-19T09:57:28.269Z,91.70
2018-02-19T09:59:55.205Z,90.70
2018-02-19T10:02:22.124Z,89.70
2018-02-19T10:04:49.050Z,89.80
2018-02-19T10:07:15.956Z,89.90
2018-02-19T10:09:42.881Z,87.80
2018-02-19T10:12:09.799Z,85.40
2018-02-19T10:14:36.720Z,84.20
2018-02-19T10:17:03.636Z,82.60
2018-02-19T10:19:31.320Z,81.40
2018-02-19T10:21:58.224Z,81.30
2018-02-19T10:24:25.152Z,80.70
2018-02-19T10:26:52.062Z,79.40
2018-02-19T10:29:18.991Z,77.30
2018-02-19T10:31:45.904Z,75.10
2018-02-19T10:34:12.824Z,76.70
2018-02-19T10:36:39.733Z,77.20
2018-02-19T10:39:06.657Z,76.80
2018-02-19T10:41:35.337Z,76.80
2018-02-19T10:44:02.266Z,76.80
2018-02-19T10:46:29.178Z,76.60
2018-02-19T10:48:56.101Z,76.40
2018-02-19T10:51:23.004Z,77.00
2018-02-19T10:53:49.945Z,77.30
2018-02-19T10:56:16.860Z,76.50
2018-02-19T10:58:43.771Z,74.90
2018-02-19T11:01:10.697Z,74.90
2018-02-19T11:03:38.368Z,74.80
2018-02-19T11:06:05.309Z,74.80
2018-02-19T11:08:32.229Z,75.00
2018-02-19T11:10:59.153Z,74.80
2018-02-19T11:13:27.050Z,74.90
2018-02-19T11:15:53.996Z,74.80
2018-02-19T11:18:22.681Z,74.80
2018-02-19T11:20:50.381Z,74.40
2018-02-19T11:23:18.312Z,74.50
2018-02-19T11:25:46.016Z,74.30
2018-02-19T11:28:12.942Z,74.30
2018-02-19T11:30:39.877Z,74.90
2018-02-19T11:33:06.815Z,75.30
2018-02-19T11:35:34.516Z,75.10
2018-02-19T11:38:01.448Z,75.00
2018-02-19T11:40:29.397Z,75.40
2018-02-19T11:42:56.310Z,74.80
2018-02-19T11:45:24.209Z,75.20
2018-02-19T11:47:51.152Z,75.30
2018-02-19T11:50:18.073Z,74.60
2018-02-19T11:52:47.685Z,75.50
2018-02-19T11:55:16.280Z,75.20
2018-02-19T11:57:43.957Z,75.00
2018-02-19T12:00:10.904Z,74.90
2018-02-19T12:02:37.808Z,74.30
2018-02-19T12:05:04.741Z,74.30
2018-02-19T12:07:31.650Z,74.50
2018-02-19T12:09:58.585Z,75.00
2018-02-19T12:12:25.503Z,75.50
2018-02-19T12:14:53.204Z,74.80
2018-02-19T12:17:20.128Z,74.80
2018-02-19T12:19:47.053Z,74.90
2018-02-19T12:22:14.728Z,74.10
2018-02-19T12:24:42.588Z,74.10
2018-02-19T12:27:10.255Z,74.50
2018-02-19T12:29:37.196Z,74.50
2018-02-19T12:32:04.882Z,73.60
2018-02-19T12:34:31.816Z,73.60
2018-02-19T12:36:58.745Z,73.30
2018-02-19T12:39:25.719Z,73.20
2018-02-19T12:41:53.659Z,73.20
2018-02-19T12:44:20.593Z,73.30
2018-02-19T12:46:48.277Z,72.40
2018-02-19T12:49:15.213Z,72.30
2018-02-19T12:51:42.130Z,72.70
2018-02-19T12:54:09.060Z,72.90
2018-02-19T12:56:35.979Z,72.20
2018-02-19T12:59:02.915Z,72.10
2018-02-19T13:01:29.845Z,71.30
2018-02-19T13:03:56.802Z,71.20
2018-02-19T13:06:23.724Z,71.60
2018-02-19T13:08:50.704Z,71.40
2018-02-19T13:11:17.618Z,71.60
2018-02-19T13:13:44.572Z,71.80
2018-02-19T13:16:11.492Z,71.20
2018-02-19T13:18:39.188Z,71.40
2018-02-19T13:21:06.208Z,71.40
2018-02-19T13:23:33.080Z,71.20
2018-02-19T13:25:59.988Z,71.10
2018-02-19T13:28:28.689Z,68.60
2018-02-19T13:30:56.514Z,65.80
2018-02-19T13:33:23.452Z,65.80
2018-02-19T13:35:51.369Z,63.10
2018-02-19T13:38:18.316Z,63.90
2018-02-19T13:40:45.246Z,63.40
2018-02-19T13:43:12.929Z,60.10
2018-02-19T13:45:39.925Z,60.00
2018-02-19T13:48:06.849Z,59.00
2018-02-19T13:50:33.781Z,61.90
2018-02-19T13:53:00.693Z,63.30
2018-02-19T13:55:27.637Z,63.40
2018-02-19T13:57:54.565Z,64.00
2018-02-19T14:00:22.272Z,65.10
2018-02-19T14:02:49.212Z,65.10
2018-02-19T14:05:16.184Z,66.50
2018-02-19T14:07:43.885Z,68.30
2018-02-19T14:10:12.580Z,68.30
2018-02-19T14:12:39.517Z,68.30
2018-02-19T14:15:08.113Z,68.40
2018-02-19T14:17:35.102Z,68.40
2018-02-19T14:20:02.037Z,68.50
2018-02-19T14:22:31.937Z,68.80
2018-02-19T14:24:59.812Z,69.40
2018-02-19T14:27:26.725Z,69.30
2018-02-19T14:29:53.732Z,69.30
2018-02-19T14:32:20.802Z,69.20
2018-02-19T14:34:48.697Z,70.00
2018-02-19T14:37:15.649Z,70.00
2018-02-19T14:39:42.585Z,69.80
2018-02-19T14:42:09.508Z,69.50
2018-02-19T14:44:37.217Z,69.50
2018-02-19T14:47:04.146Z,69.50
2018-02-19T14:49:31.073Z,69.60
2018-02-19T14:51:57.984Z,69.80
2018-02-19T14:54:24.920Z,69.80
2018-02-19T14:56:52.271Z,69.70
2018-02-19T14:59:20.488Z,69.60
2018-02-19T15:01:47.418Z,70.00
2018-02-19T15:04:15.116Z,70.10
2018-02-19T15:06:42.029Z,70.10
2018-02-19T15:09:10.624Z,70.50
2018-02-19T15:11:37.540Z,70.60
2018-02-19T15:14:04.473Z,70.50
2018-02-19T15:16:32.366Z,70.50
2018-02-19T15:19:00.054Z,70.30
2018-02-19T15:21:26.968Z,70.30
2018-02-19T15:23:55.573Z,70.30
2018-02-19T15:26:22.484Z,70.30
2018-02-19T15:28:49.421Z,70.60
2018-02-19T15:31:17.310Z,71.10
2018-02-19T15:33:44.245Z,71.30
2018-02-19T15:36:14.881Z,71.40
2018-02-19T15:38:44.541Z,71.40
2018-02-19T15:41:12.374Z,71.50
2018-02-19T15:43:39.313Z,71.60
2018-02-19T15:46:06.992Z,71.70
2018-02-19T15:48:33.916Z,71.60
2018-02-19T15:51:01.773Z,72.00
2018-02-19T15:53:30.485Z,72.80
2018-02-19T15:55:57.397Z,72.80
2018-02-19T15:58:25.092Z,73.50
2018-02-19T16:00:52.009Z,73.00
2018-02-19T16:03:18.945Z,73.10
2018-02-19T16:05:45.856Z,73.10
2018-02-19T16:08:12.806Z,73.50
2018-02-19T16:10:39.726Z,73.70
2018-02-19T16:13:06.652Z,73.90
2018-02-19T16:15:34.424Z,74.00
2018-02-19T16:18:01.374Z,74.20
2018-02-19T16:20:29.213Z,74.40
2018-02-19T16:22:56.909Z,74.30
2018-02-19T16:25:24.774Z,74.20
2018-02-19T16:27:51.698Z,74.30
2018-02-19T16:30:18.642Z,74.60
2018-02-19T16:32:45.553Z,74.60
2018-02-19T16:35:12.491Z,74.60
2018-02-19T16:37:39.415Z,74.70
2018-02-19T16:40:06.345Z,75.20
2018-02-19T16:42:33.251Z,75.70
2018-02-19T16:45:00.954Z,76.20
2018-02-19T16:47:28.878Z,76.10
2018-02-19T16:49:56.577Z,77.30
2018-02-19T16:52:23.488Z,77.30
2018-02-19T16:54:50.429Z,77.70
2018-02-19T16:57:17.353Z,77.90
2018-02-19T16:59:45.252Z,78.10
2018-02-19T17:02:12.164Z,78.20
2018-02-19T17:04:41.050Z,78.40
2018-02-19T17:07:07.973Z,78.30
2018-02-19T17:09:34.909Z,77.90
2018-02-19T17:12:01.846Z,77.90
2018-02-19T17:14:32.625Z,77.80
2018-02-19T17:16:59.609Z,78.10
2018-02-19T17:19:27.480Z,78.10
2018-02-19T17:21:54.393Z,77.80
2018-02-19T17:24:22.088Z,77.90
2018-02-19T17:26:49.930Z,77.80
2018-02-19T17:29:17.639Z,78.20
2018-02-19T17:31:45.313Z,78.50
2018-02-19T17:34:12.242Z,78.00
2018-02-19T17:36:39.148Z,78.20
2018-02-19T17:39:06.104Z,78.40
2018-02-19T17:41:33.020Z,78.80
2018-02-19T17:43:59.933Z,79.50
2018-02-19T17:46:26.874Z,80.20
2018-02-19T17:48:53.832Z,80.50
2018-02-19T17:51:21.672Z,80.90
2018-02-19T17:53:48.601Z,81.10
2018-02-19T17:56:16.457Z,81.30
2018-02-19T17:58:43.381Z,81.50
2018-02-19T18:01:11.073Z,82.00
2018-02-19T18:03:39.009Z,82.00
2018-02-19T18:06:06.696Z,82.40
2018-02-19T18:08:33.612Z,82.40
2018-02-19T18:11:01.298Z,82.50
2018-02-19T18:13:28.223Z,82.60
2018-02-19T18:15:55.149Z,82.40
2018-02-19T18:18:22.093Z,82.30
2018-02-19T18:20:51.025Z,82.40
2018-02-19T18:23:17.940Z,82.70
2018-02-19T18:25:48.085Z,82.40
2018-02-19T18:28:15.925Z,82.70
2018-02-19T18:30:43.696Z,82.70
2018-02-19T18:33:13.297Z,82.90
2018-02-19T18:35:42.212Z,82.80
2018-02-19T18:38:12.890Z,82.80
2018-02-19T18:40:46.244Z,83.10
2018-02-19T18:43:26.630Z,83.40
2018-02-19T18:45:53.570Z,84.00
2018-02-19T18:48:20.472Z,84.20
2018-02-19T18:50:50.092Z,85.20
2018-02-19T18:53:17.005Z,85.20
2018-02-19T18:55:43.923Z,85.40
2018-02-19T18:58:11.747Z,85.90
2018-02-19T19:00:44.311Z,86.70
2018-02-19T19:03:13.000Z,87.40
2018-02-19T19:05:40.705Z,87.30
2018-02-19T19:08:19.516Z,87.30
2018-02-19T19:10:50.384Z,87.60
2018-02-19T19:13:18.280Z,87.90
2018-02-19T19:15:45.984Z,88.30
2018-02-19T19:18:12.897Z,88.20
2018-02-19T19:20:41.733Z,88.40
2018-02-19T19:23:08.648Z,88.90
2018-02-19T19:25:35.572Z,89.40
2018-02-19T19:28:02.497Z,89.50
2018-02-19T19:30:29.440Z,89.50
2018-02-19T19:32:56.340Z,89.80
2018-02-19T19:35:23.302Z,89.60
2018-02-19T19:37:50.214Z,89.60
2018-02-19T19:40:22.850Z,89.50
2018-02-19T19:42:49.765Z,89.20
2018-02-19T19:45:16.697Z,89.20
2018-02-19T19:47:43.613Z,89.10
2018-02-19T19:50:10.540Z,89.30
2018-02-19T19:52:38.216Z,89.50
2018-02-19T19:55:05.145Z,89.50
2018-02-19T19:57:33.073Z,89.60
2018-02-19T20:00:01.000Z,89.80
2018-02-19T20:02:31.294Z,89.80
2018-02-19T20:04:58.256Z,90.00
2018-02-19T20:07:25.933Z,90.00
2018-02-19T20:09:57.389Z,90.00
2018-02-19T20:12:24.325Z,90.20
2018-02-19T20:14:52.235Z,90.20
2018-02-19T20:17:21.196Z,90.50
2018-02-19T20:19:51.491Z,90.70
2018-02-19T20:22:20.276Z,90.60
2018-02-19T20:24:47.979Z,90.50
2018-02-19T20:27:15.807Z,90.50
2018-02-19T20:29:44.495Z,90.50
2018-02-19T20:32:11.434Z,90.50
2018-02-19T20:34:38.404Z,90.60
2018-02-19T20:37:05.332Z,90.70
2018-02-19T20:39:34.069Z,90.50
2018-02-19T20:42:00.994Z,90.50
2018-02-19T20:44:28.932Z,90.30
2018-02-19T20:46:56.615Z,90.20
2018-02-19T20:49:24.498Z,90.20
2018-02-19T20:51:52.436Z,90.40
2018-02-19T20:54:19.363Z,90.60
2018-02-19T20:56:48.060Z,90.60
2018-02-19T20:59:14.994Z,90.60
2018-02-19T21:01:43.682Z,90.60
2018-02-19T21:04:12.381Z,90.70
2018-02-19T21:06:42.688Z,90.70
2018-02-19T21:09:09.636Z,90.90
2018-02-19T21:11:36.549Z,90.90
2018-02-19T21:14:03.477Z,90.80
2018-02-19T21:16:30.397Z,90.90
2018-02-19T21:18:57.349Z,90.90
2018-02-19T21:21:24.303Z,91.30
2018-02-19T21:23:52.253Z,91.20
2018-02-19T21:26:21.150Z,91.50
2018-02-19T21:28:48.989Z,91.50
2018-02-19T21:31:16.826Z,91.30
2018-02-19T21:33:43.758Z,91.30
2018-02-19T21:36:10.679Z,90.60
2018-02-19T21:38:37.617Z,90.40
2018-02-19T21:41:04.569Z,90.40
2018-02-19T21:43:31.525Z,90.40
2018-02-19T21:45:59.457Z,90.40
2018-02-19T21:48:26.377Z,90.30
2018-02-19T21:50:54.085Z,90.40
2018-02-19T21:53:21.046Z,90.40
2018-02-19T21:55:47.962Z,90.30
2018-02-19T21:58:16.865Z,90.40
2018-02-19T22:00:43.821Z,90.40
2018-02-19T22:03:10.756Z,90.30
2018-02-19T22:05:37.673Z,90.50
2018-02-19T22:08:06.411Z,90.60
2018-02-19T22:10:37.797Z,90.60
2018-02-19T22:13:05.546Z,90.60
2018-02-19T22:15:34.239Z,90.60
2018-02-19T22:18:01.949Z,90.50
2018-02-19T22:20:29.257Z,90.70
2018-02-19T22:22:56.198Z,90.70
2018-02-19T22:25:23.882Z,90.50
2018-02-19T22:27:50.809Z,90.50
2018-02-19T22:30:19.498Z,90.30
2018-02-19T22:32:48.204Z,90.20
2018-02-19T22:35:16.046Z,90.20
2018-02-19T22:37:43.745Z,90.30
2018-02-19T22:40:10.664Z,90.30
2018-02-19T22:42:38.370Z,90.10
2018-02-19T22:45:05.284Z,90.10
2018-02-19T22:47:32.204Z,90.10
2018-02-19T22:49:59.883Z,90.20
2018-02-19T22:52:27.745Z,90.20
2018-02-19T22:54:55.419Z,90.10
2018-02-19T22:57:22.382Z,90.10
2018-02-19T22:59:49.292Z,90.00
2018-02-19T23:02:16.977Z,89.90
2018-02-19T23:04:43.888Z,89.80
2018-02-19T23:07:11.576Z,89.50
2018-02-19T23:09:38.487Z,89.50
2018-02-19T23:12:05.428Z,89.90
2018-02-19T23:14:32.339Z,89.90
2018-02-19T23:16:59.249Z,90.00
2018-02-19T23:19:28.128Z,89.30
2018-02-19T23:21:55.796Z,90.00
2018-02-19T23:24:22.727Z,90.00
2018-02-19T23:26:51.314Z,90.10
2018-02-19T23:29:18.536Z,90.10
2018-02-19T23:31:45.452Z,90.10
2018-02-19T23:34:13.376Z,90.20
2018-02-19T23:36:41.048Z,90.50
2018-02-19T23:39:08.881Z,90.50
2018-02-19T23:41:35.792Z,90.60
2018-02-19T23:44:03.793Z,90.70
2018-02-19T23:46:32.407Z,91.20
2018-02-19T23:48:59.336Z,91.20
2018-02-19T23:51:27.005Z,92.00
2018-02-19T23:53:54.693Z,92.00
2018-02-19T23:56:21.600Z,92.00
2018-02-19T23:58:49.476Z,92.70
